sensor_id;sensor_type;location;lat;lon;timestamp;temperature;humidity
65207;SHT31;58477;48.072;11.970;2023-07-29T00:01:50;15.50;99.20
65207;SHT31;58477;48.072;11.970;2023-07-29T00:04:16;15.45;99.21
65207;SHT31;58477;48.072;11.970;2023-07-29T00:06:42;15.48;99.03
65207;SHT31;58477;48.072;11.970;2023-07-29T00:09:07;15.54;98.93
65207;SHT31;58477;48.072;11.970;2023-07-29T00:11:33;15.48;98.54
65207;SHT31;58477;48.072;11.970;2023-07-29T00:14:02;15.45;98.75
65207;SHT31;58477;48.072;11.970;2023-07-29T00:16:27;15.48;99.04
65207;SHT31;58477;48.072;11.970;2023-07-29T00:18:53;15.54;98.75
65207;SHT31;58477;48.072;11.970;2023-07-29T00:21:18;15.57;98.87
65207;SHT31;58477;48.072;11.970;2023-07-29T00:23:45;15.61;98.68
65207;SHT31;58477;48.072;11.970;2023-07-29T00:26:10;15.26;99.62
65207;SHT31;58477;48.072;11.970;2023-07-29T00:28:35;15.17;99.87
65207;SHT31;58477;48.072;11.970;2023-07-29T00:31:02;15.10;99.99
65207;SHT31;58477;48.072;11.970;2023-07-29T00:33:27;15.01;99.99
65207;SHT31;58477;48.072;11.970;2023-07-29T00:35:53;15.01;99.99
65207;SHT31;58477;48.072;11.970;2023-07-29T00:38:18;15.21;99.99
65207;SHT31;58477;48.072;11.970;2023-07-29T00:40:44;15.35;99.98
65207;SHT31;58477;48.072;11.970;2023-07-29T00:43:09;15.27;99.78
65207;SHT31;58477;48.072;11.970;2023-07-29T00:45:35;15.28;99.93
65207;SHT31;58477;48.072;11.970;2023-07-29T00:48:02;15.24;99.88
65207;SHT31;58477;48.072;11.970;2023-07-29T00:50:29;15.11;99.99
65207;SHT31;58477;48.072;11.970;2023-07-29T00:52:55;15.11;99.99
65207;SHT31;58477;48.072;11.970;2023-07-29T00:55:22;15.11;99.99
65207;SHT31;58477;48.072;11.970;2023-07-29T00:57:48;15.16;99.99
65207;SHT31;58477;48.072;11.970;2023-07-29T01:00:16;15.20;99.99
65207;SHT31;58477;48.072;11.970;2023-07-29T01:02:43;15.23;99.74
65207;SHT31;58477;48.072;11.970;2023-07-29T01:05:10;15.23;99.77
65207;SHT31;58477;48.072;11.970;2023-07-29T01:07:47;15.27;99.90
65207;SHT31;58477;48.072;11.970;2023-07-29T01:10:21;15.23;99.99
65207;SHT31;58477;48.072;11.970;2023-07-29T01:18:08;15.47;98.93
65207;SHT31;58477;48.072;11.970;2023-07-29T01:20:38;15.47;99.15
65207;SHT31;58477;48.072;11.970;2023-07-29T01:23:05;15.38;99.21
65207;SHT31;58477;48.072;11.970;2023-07-29T01:25:30;15.50;98.47
65207;SHT31;58477;48.072;11.970;2023-07-29T01:27:56;15.43;98.75
65207;SHT31;58477;48.072;11.970;2023-07-29T01:30:26;15.44;98.90
65207;SHT31;58477;48.072;11.970;2023-07-29T01:33:06;15.38;99.03
65207;SHT31;58477;48.072;11.970;2023-07-29T01:38:09;15.34;98.97
65207;SHT31;58477;48.072;11.970;2023-07-29T01:40:37;15.43;98.31
65207;SHT31;58477;48.072;11.970;2023-07-29T01:43:03;15.40;98.44
65207;SHT31;58477;48.072;11.970;2023-07-29T01:45:28;15.17;98.77
65207;SHT31;58477;48.072;11.970;2023-07-29T01:47:57;14.99;99.10
65207;SHT31;58477;48.072;11.970;2023-07-29T01:50:22;14.86;99.99
65207;SHT31;58477;48.072;11.970;2023-07-29T01:52:48;14.97;99.98
65207;SHT31;58477;48.072;11.970;2023-07-29T01:55:13;15.06;99.76
65207;SHT31;58477;48.072;11.970;2023-07-29T01:57:40;15.16;99.54
65207;SHT31;58477;48.072;11.970;2023-07-29T02:00:06;15.13;99.37
65207;SHT31;58477;48.072;11.970;2023-07-29T02:02:39;15.11;99.15
65207;SHT31;58477;48.072;11.970;2023-07-29T02:05:05;15.19;98.99
65207;SHT31;58477;48.072;11.970;2023-07-29T02:07:30;15.20;98.98
65207;SHT31;58477;48.072;11.970;2023-07-29T02:09:56;15.20;98.90
65207;SHT31;58477;48.072;11.970;2023-07-29T02:12:21;15.20;98.75
65207;SHT31;58477;48.072;11.970;2023-07-29T02:14:47;15.20;98.89
65207;SHT31;58477;48.072;11.970;2023-07-29T02:17:12;15.23;98.93
65207;SHT31;58477;48.072;11.970;2023-07-29T02:19:37;15.20;98.74
65207;SHT31;58477;48.072;11.970;2023-07-29T02:22:03;15.24;98.92
65207;SHT31;58477;48.072;11.970;2023-07-29T02:24:29;15.27;98.74
65207;SHT31;58477;48.072;11.970;2023-07-29T02:26:54;15.34;98.51
65207;SHT31;58477;48.072;11.970;2023-07-29T02:29:20;15.33;98.52
65207;SHT31;58477;48.072;11.970;2023-07-29T02:31:46;15.20;98.87
65207;SHT31;58477;48.072;11.970;2023-07-29T02:34:13;15.21;98.86
65207;SHT31;58477;48.072;11.970;2023-07-29T02:36:38;15.20;99.05
65207;SHT31;58477;48.072;11.970;2023-07-29T02:39:04;15.03;99.56
65207;SHT31;58477;48.072;11.970;2023-07-29T02:41:30;14.99;99.66
65207;SHT31;58477;48.072;11.970;2023-07-29T02:43:56;14.99;99.68
65207;SHT31;58477;48.072;11.970;2023-07-29T02:46:21;14.96;99.66
65207;SHT31;58477;48.072;11.970;2023-07-29T02:48:46;14.83;99.92
65207;SHT31;58477;48.072;11.970;2023-07-29T02:51:12;14.80;99.99
65207;SHT31;58477;48.072;11.970;2023-07-29T02:53:37;14.75;99.99
65207;SHT31;58477;48.072;11.970;2023-07-29T02:56:04;14.75;99.99
65207;SHT31;58477;48.072;11.970;2023-07-29T02:58:29;14.75;99.99
65207;SHT31;58477;48.072;11.970;2023-07-29T03:01:04;14.84;99.99
65207;SHT31;58477;48.072;11.970;2023-07-29T03:03:31;14.87;99.99
65207;SHT31;58477;48.072;11.970;2023-07-29T03:06:02;14.99;99.99
65207;SHT31;58477;48.072;11.970;2023-07-29T03:08:28;15.14;99.99
65207;SHT31;58477;48.072;11.970;2023-07-29T03:10:54;15.13;99.98
65207;SHT31;58477;48.072;11.970;2023-07-29T03:13:20;15.11;99.86
65207;SHT31;58477;48.072;11.970;2023-07-29T03:15:45;15.20;99.31
65207;SHT31;58477;48.072;11.970;2023-07-29T03:18:11;15.10;99.60
65207;SHT31;58477;48.072;11.970;2023-07-29T03:20:36;15.00;99.88
65207;SHT31;58477;48.072;11.970;2023-07-29T03:23:02;15.06;99.99
65207;SHT31;58477;48.072;11.970;2023-07-29T03:25:28;15.06;99.90
65207;SHT31;58477;48.072;11.970;2023-07-29T03:27:54;14.89;99.99
65207;SHT31;58477;48.072;11.970;2023-07-29T03:30:21;14.91;99.99
65207;SHT31;58477;48.072;11.970;2023-07-29T03:32:47;14.91;99.99
65207;SHT31;58477;48.072;11.970;2023-07-29T03:35:13;14.96;99.99
65207;SHT31;58477;48.072;11.970;2023-07-29T03:37:39;14.84;99.79
65207;SHT31;58477;48.072;11.970;2023-07-29T03:40:06;14.55;99.99
65207;SHT31;58477;48.072;11.970;2023-07-29T03:42:33;14.65;99.99
65207;SHT31;58477;48.072;11.970;2023-07-29T03:44:58;14.73;99.99
65207;SHT31;58477;48.072;11.970;2023-07-29T03:47:24;14.73;99.99
65207;SHT31;58477;48.072;11.970;2023-07-29T03:49:51;14.70;99.94
65207;SHT31;58477;48.072;11.970;2023-07-29T03:52:19;14.79;99.92
65207;SHT31;58477;48.072;11.970;2023-07-29T03:54:45;14.75;99.52
65207;SHT31;58477;48.072;11.970;2023-07-29T03:57:10;14.60;99.67
65207;SHT31;58477;48.072;11.970;2023-07-29T03:59:36;14.38;99.99
65207;SHT31;58477;48.072;11.970;2023-07-29T04:02:01;14.52;99.99
65207;SHT31;58477;48.072;11.970;2023-07-29T04:04:27;14.69;99.99
65207;SHT31;58477;48.072;11.970;2023-07-29T04:06:52;14.76;99.99
65207;SHT31;58477;48.072;11.970;2023-07-29T04:09:18;14.89;99.99
65207;SHT31;58477;48.072;11.970;2023-07-29T04:11:43;14.91;99.99
65207;SHT31;58477;48.072;11.970;2023-07-29T04:14:09;14.84;99.99
65207;SHT31;58477;48.072;11.970;2023-07-29T04:16:34;15.03;99.99
65207;SHT31;58477;48.072;11.970;2023-07-29T04:19:00;15.10;99.99
65207;SHT31;58477;48.072;11.970;2023-07-29T04:21:26;15.33;99.90
65207;SHT31;58477;48.072;11.970;2023-07-29T04:23:51;15.41;99.90
65207;SHT31;58477;48.072;11.970;2023-07-29T04:26:16;15.44;99.92
65207;SHT31;58477;48.072;11.970;2023-07-29T04:28:42;15.43;99.15
65207;SHT31;58477;48.072;11.970;2023-07-29T04:31:08;15.51;99.09
65207;SHT31;58477;48.072;11.970;2023-07-29T04:33:33;15.58;98.61
65207;SHT31;58477;48.072;11.970;2023-07-29T04:35:59;15.58;98.68
65207;SHT31;58477;48.072;11.970;2023-07-29T04:38:29;15.41;99.33
65207;SHT31;58477;48.072;11.970;2023-07-29T04:40:55;15.28;99.79
65207;SHT31;58477;48.072;11.970;2023-07-29T04:43:21;15.27;99.94
65207;SHT31;58477;48.072;11.970;2023-07-29T04:45:46;15.54;99.11
65207;SHT31;58477;48.072;11.970;2023-07-29T04:48:11;15.72;98.24
65207;SHT31;58477;48.072;11.970;2023-07-29T04:50:37;15.69;97.79
65207;SHT31;58477;48.072;11.970;2023-07-29T04:53:02;15.59;98.39
65207;SHT31;58477;48.072;11.970;2023-07-29T04:55:28;15.72;97.75
65207;SHT31;58477;48.072;11.970;2023-07-29T04:57:53;15.78;97.47
65207;SHT31;58477;48.072;11.970;2023-07-29T05:00:19;15.88;97.67
65207;SHT31;58477;48.072;11.970;2023-07-29T05:02:44;15.87;97.58
65207;SHT31;58477;48.072;11.970;2023-07-29T05:05:10;16.08;97.25
65207;SHT31;58477;48.072;11.970;2023-07-29T05:07:36;16.46;96.53
65207;SHT31;58477;48.072;11.970;2023-07-29T05:10:01;16.83;95.13
65207;SHT31;58477;48.072;11.970;2023-07-29T05:12:27;17.93;92.06
65207;SHT31;58477;48.072;11.970;2023-07-29T05:14:54;19.50;89.38
65207;SHT31;58477;48.072;11.970;2023-07-29T05:17:19;19.15;88.33
65207;SHT31;58477;48.072;11.970;2023-07-29T05:19:45;18.80;88.96
65207;SHT31;58477;48.072;11.970;2023-07-29T05:22:10;19.66;87.33
65207;SHT31;58477;48.072;11.970;2023-07-29T05:24:36;20.43;85.12
65207;SHT31;58477;48.072;11.970;2023-07-29T05:27:01;20.40;85.18
65207;SHT31;58477;48.072;11.970;2023-07-29T05:29:27;19.78;86.77
65207;SHT31;58477;48.072;11.970;2023-07-29T05:31:52;19.63;86.74
65207;SHT31;58477;48.072;11.970;2023-07-29T05:34:18;19.45;87.56
65207;SHT31;58477;48.072;11.970;2023-07-29T05:36:44;19.87;86.83
65207;SHT31;58477;48.072;11.970;2023-07-29T05:39:09;19.69;86.84
65207;SHT31;58477;48.072;11.970;2023-07-29T05:41:37;19.50;88.26
65207;SHT31;58477;48.072;11.970;2023-07-29T05:44:03;18.91;88.77
65207;SHT31;58477;48.072;11.970;2023-07-29T05:46:28;18.70;89.84
65207;SHT31;58477;48.072;11.970;2023-07-29T05:48:54;18.91;89.99
65207;SHT31;58477;48.072;11.970;2023-07-29T05:51:20;18.74;90.28
65207;SHT31;58477;48.072;11.970;2023-07-29T05:53:45;19.28;89.47
65207;SHT31;58477;48.072;11.970;2023-07-29T05:56:11;19.28;88.90
65207;SHT31;58477;48.072;11.970;2023-07-29T05:58:36;18.93;89.78
65207;SHT31;58477;48.072;11.970;2023-07-29T06:01:02;18.49;90.88
65207;SHT31;58477;48.072;11.970;2023-07-29T06:03:28;18.74;91.78
65207;SHT31;58477;48.072;11.970;2023-07-29T06:05:54;18.81;90.86
65207;SHT31;58477;48.072;11.970;2023-07-29T06:08:19;18.87;90.71
65207;SHT31;58477;48.072;11.970;2023-07-29T06:10:45;18.87;89.97
65207;SHT31;58477;48.072;11.970;2023-07-29T06:13:10;19.01;90.26
65207;SHT31;58477;48.072;11.970;2023-07-29T06:15:36;19.21;89.46
65207;SHT31;58477;48.072;11.970;2023-07-29T06:18:01;19.36;88.46
65207;SHT31;58477;48.072;11.970;2023-07-29T06:20:26;19.58;88.39
65207;SHT31;58477;48.072;11.970;2023-07-29T06:22:52;18.94;90.58
65207;SHT31;58477;48.072;11.970;2023-07-29T06:25:18;18.49;90.82
65207;SHT31;58477;48.072;11.970;2023-07-29T06:27:43;18.44;91.68
65207;SHT31;58477;48.072;11.970;2023-07-29T06:30:09;18.22;91.79
65207;SHT31;58477;48.072;11.970;2023-07-29T06:32:34;17.83;94.06
65207;SHT31;58477;48.072;11.970;2023-07-29T06:35:00;17.95;94.50
65207;SHT31;58477;48.072;11.970;2023-07-29T06:37:25;17.71;95.33
65207;SHT31;58477;48.072;11.970;2023-07-29T06:39:51;17.51;96.62
65207;SHT31;58477;48.072;11.970;2023-07-29T06:42:16;17.23;98.74
65207;SHT31;58477;48.072;11.970;2023-07-29T06:44:41;17.37;97.08
65207;SHT31;58477;48.072;11.970;2023-07-29T06:47:07;17.38;97.04
65207;SHT31;58477;48.072;11.970;2023-07-29T06:49:32;17.47;97.30
65207;SHT31;58477;48.072;11.970;2023-07-29T06:51:58;17.55;97.50
65207;SHT31;58477;48.072;11.970;2023-07-29T06:54:24;17.49;97.43
65207;SHT31;58477;48.072;11.970;2023-07-29T06:56:51;17.37;97.30
65207;SHT31;58477;48.072;11.970;2023-07-29T06:59:16;17.59;97.09
65207;SHT31;58477;48.072;11.970;2023-07-29T07:01:41;17.57;96.73
65207;SHT31;58477;48.072;11.970;2023-07-29T07:04:07;17.69;97.78
65207;SHT31;58477;48.072;11.970;2023-07-29T07:06:32;17.83;96.49
65207;SHT31;58477;48.072;11.970;2023-07-29T07:08:58;17.82;96.00
65207;SHT31;58477;48.072;11.970;2023-07-29T07:11:23;17.69;97.41
65207;SHT31;58477;48.072;11.970;2023-07-29T07:13:48;17.69;98.16
65207;SHT31;58477;48.072;11.970;2023-07-29T07:16:14;17.59;98.13
65207;SHT31;58477;48.072;11.970;2023-07-29T07:18:39;17.47;97.29
65207;SHT31;58477;48.072;11.970;2023-07-29T07:21:05;17.48;97.38
65207;SHT31;58477;48.072;11.970;2023-07-29T07:23:30;17.47;98.05
65207;SHT31;58477;48.072;11.970;2023-07-29T07:25:56;17.38;98.64
65207;SHT31;58477;48.072;11.970;2023-07-29T07:28:21;17.39;98.26
65207;SHT31;58477;48.072;11.970;2023-07-29T07:30:46;17.55;97.98
65207;SHT31;58477;48.072;11.970;2023-07-29T07:33:12;17.69;97.21
65207;SHT31;58477;48.072;11.970;2023-07-29T07:35:37;17.74;96.89
65207;SHT31;58477;48.072;11.970;2023-07-29T07:38:03;17.82;96.38
65207;SHT31;58477;48.072;11.970;2023-07-29T07:40:31;17.82;97.47
65207;SHT31;58477;48.072;11.970;2023-07-29T07:42:56;17.95;96.45
65207;SHT31;58477;48.072;11.970;2023-07-29T07:45:21;17.98;96.27
65207;SHT31;58477;48.072;11.970;2023-07-29T07:47:47;18.05;96.30
65207;SHT31;58477;48.072;11.970;2023-07-29T07:50:13;18.25;96.49
65207;SHT31;58477;48.072;11.970;2023-07-29T07:52:39;18.42;96.18
65207;SHT31;58477;48.072;11.970;2023-07-29T07:55:05;18.59;94.62
65207;SHT31;58477;48.072;11.970;2023-07-29T07:57:31;18.78;95.11
65207;SHT31;58477;48.072;11.970;2023-07-29T07:59:56;18.86;94.74
65207;SHT31;58477;48.072;11.970;2023-07-29T08:02:22;18.93;94.50
65207;SHT31;58477;48.072;11.970;2023-07-29T08:04:47;18.90;93.11
65207;SHT31;58477;48.072;11.970;2023-07-29T08:07:13;18.76;94.72
65207;SHT31;58477;48.072;11.970;2023-07-29T08:09:39;18.87;94.54
65207;SHT31;58477;48.072;11.970;2023-07-29T08:12:05;19.08;94.00
65207;SHT31;58477;48.072;11.970;2023-07-29T08:14:30;18.80;94.04
65207;SHT31;58477;48.072;11.970;2023-07-29T08:16:55;18.90;93.53
65207;SHT31;58477;48.072;11.970;2023-07-29T08:19:21;18.81;94.21
65207;SHT31;58477;48.072;11.970;2023-07-29T08:21:46;18.64;93.60
65207;SHT31;58477;48.072;11.970;2023-07-29T08:24:12;18.40;95.53
65207;SHT31;58477;48.072;11.970;2023-07-29T08:26:37;18.10;96.45
65207;SHT31;58477;48.072;11.970;2023-07-29T08:29:03;18.26;95.69
65207;SHT31;58477;48.072;11.970;2023-07-29T08:31:28;18.47;96.06
65207;SHT31;58477;48.072;11.970;2023-07-29T08:33:53;18.76;96.27
65207;SHT31;58477;48.072;11.970;2023-07-29T08:36:19;18.91;94.00
65207;SHT31;58477;48.072;11.970;2023-07-29T08:38:44;18.97;95.37
65207;SHT31;58477;48.072;11.970;2023-07-29T08:41:27;19.12;94.69
65207;SHT31;58477;48.072;11.970;2023-07-29T08:44:24;19.20;94.14
65207;SHT31;58477;48.072;11.970;2023-07-29T08:46:51;19.47;93.53
65207;SHT31;58477;48.072;11.970;2023-07-29T08:49:19;19.34;92.64
65207;SHT31;58477;48.072;11.970;2023-07-29T08:51:47;19.55;92.73
65207;SHT31;58477;48.072;11.970;2023-07-29T08:54:13;19.65;92.12
65207;SHT31;58477;48.072;11.970;2023-07-29T08:56:43;19.62;92.70
65207;SHT31;58477;48.072;11.970;2023-07-29T08:59:10;19.57;91.85
65207;SHT31;58477;48.072;11.970;2023-07-29T09:01:40;19.47;91.23
65207;SHT31;58477;48.072;11.970;2023-07-29T09:04:06;19.57;91.92
65207;SHT31;58477;48.072;11.970;2023-07-29T09:06:32;19.55;90.52
65207;SHT31;58477;48.072;11.970;2023-07-29T09:08:59;19.65;91.05
65207;SHT31;58477;48.072;11.970;2023-07-29T09:11:25;19.54;90.97
65207;SHT31;58477;48.072;11.970;2023-07-29T09:13:50;19.68;90.49
65207;SHT31;58477;48.072;11.970;2023-07-29T09:16:16;19.63;91.87
65207;SHT31;58477;48.072;11.970;2023-07-29T09:18:42;19.99;91.97
65207;SHT31;58477;48.072;11.970;2023-07-29T09:21:07;19.92;91.18
65207;SHT31;58477;48.072;11.970;2023-07-29T09:23:44;20.53;89.53
65207;SHT31;58477;48.072;11.970;2023-07-29T09:26:10;20.57;88.96
65207;SHT31;58477;48.072;11.970;2023-07-29T09:28:37;20.78;88.11
65207;SHT31;58477;48.072;11.970;2023-07-29T09:31:03;21.22;88.65
65207;SHT31;58477;48.072;11.970;2023-07-29T09:33:29;21.45;89.97
65207;SHT31;58477;48.072;11.970;2023-07-29T09:35:56;21.54;87.44
65207;SHT31;58477;48.072;11.970;2023-07-29T09:38:28;21.76;86.69
65207;SHT31;58477;48.072;11.970;2023-07-29T09:40:55;22.00;84.68
65207;SHT31;58477;48.072;11.970;2023-07-29T09:43:25;21.99;83.52
65207;SHT31;58477;48.072;11.970;2023-07-29T09:45:51;21.97;85.04
65207;SHT31;58477;48.072;11.970;2023-07-29T09:48:22;22.50;85.80
65207;SHT31;58477;48.072;11.970;2023-07-29T09:50:48;23.14;84.25
65207;SHT31;58477;48.072;11.970;2023-07-29T09:53:14;24.17;79.13
65207;SHT31;58477;48.072;11.970;2023-07-29T09:55:46;24.78;77.11
65207;SHT31;58477;48.072;11.970;2023-07-29T09:58:11;26.04;76.45
65207;SHT31;58477;48.072;11.970;2023-07-29T10:00:37;25.61;75.68
65207;SHT31;58477;48.072;11.970;2023-07-29T10:03:04;24.77;79.57
65207;SHT31;58477;48.072;11.970;2023-07-29T10:05:30;25.69;77.63
65207;SHT31;58477;48.072;11.970;2023-07-29T10:07:56;26.50;74.90
65207;SHT31;58477;48.072;11.970;2023-07-29T10:10:21;26.92;73.69
65207;SHT31;58477;48.072;11.970;2023-07-29T10:12:47;26.68;74.10
65207;SHT31;58477;48.072;11.970;2023-07-29T10:15:13;25.50;75.32
65207;SHT31;58477;48.072;11.970;2023-07-29T10:17:40;25.41;75.78
65207;SHT31;58477;48.072;11.970;2023-07-29T10:20:07;24.95;77.88
65207;SHT31;58477;48.072;11.970;2023-07-29T10:25:07;24.85;78.42
65207;SHT31;58477;48.072;11.970;2023-07-29T10:27:40;26.44;75.60
65207;SHT31;58477;48.072;11.970;2023-07-29T10:30:08;27.82;69.67
65207;SHT31;58477;48.072;11.970;2023-07-29T10:32:35;27.63;71.90
65207;SHT31;58477;48.072;11.970;2023-07-29T10:35:01;28.60;69.35
65207;SHT31;58477;48.072;11.970;2023-07-29T10:37:27;29.63;65.80
65207;SHT31;58477;48.072;11.970;2023-07-29T10:39:54;28.75;69.97
65207;SHT31;58477;48.072;11.970;2023-07-29T10:42:20;29.23;68.01
65207;SHT31;58477;48.072;11.970;2023-07-29T10:44:46;30.31;64.85
65207;SHT31;58477;48.072;11.970;2023-07-29T10:47:17;30.16;68.32
65207;SHT31;58477;48.072;11.970;2023-07-29T10:49:44;29.02;67.65
65207;SHT31;58477;48.072;11.970;2023-07-29T10:52:15;28.24;70.06
65207;SHT31;58477;48.072;11.970;2023-07-29T10:54:47;28.60;67.06
65207;SHT31;58477;48.072;11.970;2023-07-29T10:57:14;28.56;67.57
65207;SHT31;58477;48.072;11.970;2023-07-29T10:59:40;28.50;66.71
65207;SHT31;58477;48.072;11.970;2023-07-29T11:02:17;28.58;64.89
65207;SHT31;58477;48.072;11.970;2023-07-29T11:04:50;28.13;63.56
65207;SHT31;58477;48.072;11.970;2023-07-29T11:12:39;28.64;64.64
65207;SHT31;58477;48.072;11.970;2023-07-29T11:17:56;27.46;67.40
65207;SHT31;58477;48.072;11.970;2023-07-29T11:20:32;27.86;67.91
65207;SHT31;58477;48.072;11.970;2023-07-29T11:23:00;28.20;65.48
65207;SHT31;58477;48.072;11.970;2023-07-29T11:25:26;27.11;66.35
65207;SHT31;58477;48.072;11.970;2023-07-29T11:27:53;26.44;68.84
65207;SHT31;58477;48.072;11.970;2023-07-29T11:30:19;25.35;71.30
65207;SHT31;58477;48.072;11.970;2023-07-29T11:32:46;26.10;71.52
65207;SHT31;58477;48.072;11.970;2023-07-29T11:35:14;26.61;68.63
65207;SHT31;58477;48.072;11.970;2023-07-29T11:37:42;27.11;69.51
65207;SHT31;58477;48.072;11.970;2023-07-29T11:40:08;27.90;69.11
65207;SHT31;58477;48.072;11.970;2023-07-29T11:42:37;28.60;65.18
65207;SHT31;58477;48.072;11.970;2023-07-29T11:45:03;28.90;66.01
65207;SHT31;58477;48.072;11.970;2023-07-29T11:47:31;28.07;64.77
65207;SHT31;58477;48.072;11.970;2023-07-29T11:49:59;26.95;67.58
65207;SHT31;58477;48.072;11.970;2023-07-29T11:52:25;26.12;67.73
65207;SHT31;58477;48.072;11.970;2023-07-29T11:54:52;26.22;68.89
65207;SHT31;58477;48.072;11.970;2023-07-29T11:57:18;26.23;68.40
65207;SHT31;58477;48.072;11.970;2023-07-29T11:59:46;25.99;69.89
65207;SHT31;58477;48.072;11.970;2023-07-29T12:02:13;25.39;69.64
65207;SHT31;58477;48.072;11.970;2023-07-29T12:04:41;24.70;70.88
65207;SHT31;58477;48.072;11.970;2023-07-29T12:07:07;26.46;68.45
65207;SHT31;58477;48.072;11.970;2023-07-29T12:09:38;27.81;64.25
65207;SHT31;58477;48.072;11.970;2023-07-29T12:12:05;27.25;64.77
65207;SHT31;58477;48.072;11.970;2023-07-29T12:14:31;27.11;66.34
65207;SHT31;58477;48.072;11.970;2023-07-29T12:17:00;26.32;67.65
65207;SHT31;58477;48.072;11.970;2023-07-29T12:19:31;26.65;67.55
65207;SHT31;58477;48.072;11.970;2023-07-29T12:21:57;27.05;64.38
65207;SHT31;58477;48.072;11.970;2023-07-29T12:24:22;26.61;66.03
65207;SHT31;58477;48.072;11.970;2023-07-29T12:26:48;27.62;65.69
65207;SHT31;58477;48.072;11.970;2023-07-29T12:29:17;29.14;63.58
65207;SHT31;58477;48.072;11.970;2023-07-29T12:31:45;29.59;64.95
65207;SHT31;58477;48.072;11.970;2023-07-29T12:34:18;28.97;63.79
65207;SHT31;58477;48.072;11.970;2023-07-29T12:36:48;29.38;62.42
65207;SHT31;58477;48.072;11.970;2023-07-29T12:39:40;29.18;64.13
65207;SHT31;58477;48.072;11.970;2023-07-29T12:42:09;27.82;64.42
65207;SHT31;58477;48.072;11.970;2023-07-29T12:44:35;27.18;67.76
65207;SHT31;58477;48.072;11.970;2023-07-29T12:47:02;28.46;65.75
65207;SHT31;58477;48.072;11.970;2023-07-29T12:49:28;29.39;63.33
65207;SHT31;58477;48.072;11.970;2023-07-29T12:51:55;28.80;63.45
65207;SHT31;58477;48.072;11.970;2023-07-29T12:54:21;29.02;63.97
65207;SHT31;58477;48.072;11.970;2023-07-29T12:56:46;29.00;62.16
65207;SHT31;58477;48.072;11.970;2023-07-29T12:59:12;29.42;62.70
65207;SHT31;58477;48.072;11.970;2023-07-29T13:01:37;28.26;64.48
65207;SHT31;58477;48.072;11.970;2023-07-29T13:04:03;27.86;66.06
65207;SHT31;58477;48.072;11.970;2023-07-29T13:06:28;26.65;66.78
65207;SHT31;58477;48.072;11.970;2023-07-29T13:08:54;25.57;69.45
65207;SHT31;58477;48.072;11.970;2023-07-29T13:11:19;24.87;71.08
65207;SHT31;58477;48.072;11.970;2023-07-29T13:13:45;24.78;72.16
65207;SHT31;58477;48.072;11.970;2023-07-29T13:16:11;24.03;73.68
65207;SHT31;58477;48.072;11.970;2023-07-29T13:18:36;24.19;74.90
65207;SHT31;58477;48.072;11.970;2023-07-29T13:21:02;24.08;74.11
65207;SHT31;58477;48.072;11.970;2023-07-29T13:23:27;24.00;74.36
65207;SHT31;58477;48.072;11.970;2023-07-29T13:25:55;23.85;75.26
65207;SHT31;58477;48.072;11.970;2023-07-29T13:28:20;23.28;80.36
65207;SHT31;58477;48.072;11.970;2023-07-29T13:30:46;21.12;84.97
65207;SHT31;58477;48.072;11.970;2023-07-29T13:33:11;19.75;86.96
65207;SHT31;58477;48.072;11.970;2023-07-29T13:35:37;18.91;90.05
65207;SHT31;58477;48.072;11.970;2023-07-29T13:38:02;18.59;91.95
65207;SHT31;58477;48.072;11.970;2023-07-29T13:40:28;18.53;92.77
65207;SHT31;58477;48.072;11.970;2023-07-29T13:42:54;18.28;93.33
65207;SHT31;58477;48.072;11.970;2023-07-29T13:45:20;17.91;95.17
65207;SHT31;58477;48.072;11.970;2023-07-29T13:47:45;17.41;99.99
65207;SHT31;58477;48.072;11.970;2023-07-29T13:50:11;17.44;97.31
65207;SHT31;58477;48.072;11.970;2023-07-29T13:52:37;17.91;95.67
65207;SHT31;58477;48.072;11.970;2023-07-29T13:55:04;18.32;95.98
65207;SHT31;58477;48.072;11.970;2023-07-29T13:57:30;18.97;96.45
65207;SHT31;58477;48.072;11.970;2023-07-29T13:59:55;19.55;95.31
65207;SHT31;58477;48.072;11.970;2023-07-29T14:02:21;19.95;95.14
65207;SHT31;58477;48.072;11.970;2023-07-29T14:04:46;19.99;94.17
65207;SHT31;58477;48.072;11.970;2023-07-29T14:07:12;20.17;91.91
65207;SHT31;58477;48.072;11.970;2023-07-29T14:09:37;20.46;91.63
65207;SHT31;58477;48.072;11.970;2023-07-29T14:12:04;20.41;93.04
65207;SHT31;58477;48.072;11.970;2023-07-29T14:14:29;20.64;93.08
65207;SHT31;58477;48.072;11.970;2023-07-29T14:16:55;21.01;91.32
65207;SHT31;58477;48.072;11.970;2023-07-29T14:19:20;21.21;92.05
65207;SHT31;58477;48.072;11.970;2023-07-29T14:21:46;21.27;91.53
65207;SHT31;58477;48.072;11.970;2023-07-29T14:24:11;21.41;91.25
65207;SHT31;58477;48.072;11.970;2023-07-29T14:26:37;21.54;91.25
65207;SHT31;58477;48.072;11.970;2023-07-29T14:29:02;21.28;91.47
65207;SHT31;58477;48.072;11.970;2023-07-29T14:31:27;21.17;91.67
65207;SHT31;58477;48.072;11.970;2023-07-29T14:33:53;20.84;90.17
65207;SHT31;58477;48.072;11.970;2023-07-29T14:36:18;21.04;91.05
65207;SHT31;58477;48.072;11.970;2023-07-29T14:38:43;21.11;91.63
65207;SHT31;58477;48.072;11.970;2023-07-29T14:41:09;21.12;91.02
65207;SHT31;58477;48.072;11.970;2023-07-29T14:43:35;21.21;91.51
65207;SHT31;58477;48.072;11.970;2023-07-29T14:46:01;21.28;90.88
65207;SHT31;58477;48.072;11.970;2023-07-29T14:48:27;21.18;90.88
65207;SHT31;58477;48.072;11.970;2023-07-29T14:50:52;20.81;91.61
65207;SHT31;58477;48.072;11.970;2023-07-29T14:53:18;20.48;92.72
65207;SHT31;58477;48.072;11.970;2023-07-29T14:55:43;20.23;94.36
65207;SHT31;58477;48.072;11.970;2023-07-29T14:58:09;20.32;93.09
65207;SHT31;58477;48.072;11.970;2023-07-29T15:00:34;20.12;92.70
65207;SHT31;58477;48.072;11.970;2023-07-29T15:03:00;19.92;92.43
65207;SHT31;58477;48.072;11.970;2023-07-29T15:05:25;19.85;92.29
65207;SHT31;58477;48.072;11.970;2023-07-29T15:07:51;19.79;93.56
65207;SHT31;58477;48.072;11.970;2023-07-29T15:10:18;19.68;93.56
65207;SHT31;58477;48.072;11.970;2023-07-29T15:12:46;19.57;93.01
65207;SHT31;58477;48.072;11.970;2023-07-29T15:15:12;19.51;93.92
65207;SHT31;58477;48.072;11.970;2023-07-29T15:17:38;19.54;94.34
65207;SHT31;58477;48.072;11.970;2023-07-29T15:20:04;19.61;94.37
65207;SHT31;58477;48.072;11.970;2023-07-29T15:22:30;19.72;93.50
65207;SHT31;58477;48.072;11.970;2023-07-29T15:24:58;19.76;93.76
65207;SHT31;58477;48.072;11.970;2023-07-29T15:27:27;19.75;94.22
65207;SHT31;58477;48.072;11.970;2023-07-29T15:29:53;19.73;94.15